sensor_id;sensor_type;location;lat;lon;timestamp;P1;durP1;ratioP1;P2;durP2;ratioP2
15667;SDS011;7934;48.710;9.024;2023-04-25T00:01:49;2.40;;;2.20;;
15667;SDS011;7934;48.710;9.024;2023-04-25T00:04:17;2.28;;;2.17;;
15667;SDS011;7934;48.710;9.024;2023-04-25T00:06:46;3.37;;;2.20;;
15667;SDS011;7934;48.710;9.024;2023-04-25T00:09:13;2.00;;;1.90;;
15667;SDS011;7934;48.710;9.024;2023-04-25T00:11:40;2.40;;;2.20;;
15667;SDS011;7934;48.710;9.024;2023-04-25T00:14:09;2.05;;;1.95;;
15667;SDS011;7934;48.710;9.024;2023-04-25T00:16:36;2.00;;;1.90;;
15667;SDS011;7934;48.710;9.024;2023-04-25T00:19:04;2.40;;;2.20;;
15667;SDS011;7934;48.710;9.024;2023-04-25T00:21:31;2.20;;;2.10;;
15667;SDS011;7934;48.710;9.024;2023-04-25T00:23:59;2.40;;;1.98;;
15667;SDS011;7934;48.710;9.024;2023-04-25T00:26:26;2.40;;;2.20;;
15667;SDS011;7934;48.710;9.024;2023-04-25T00:28:54;2.28;;;2.10;;
15667;SDS011;7934;48.710;9.024;2023-04-25T00:31:22;2.47;;;2.27;;
15667;SDS011;7934;48.710;9.024;2023-04-25T00:33:49;2.33;;;2.13;;
15667;SDS011;7934;48.710;9.024;2023-04-25T00:36:16;2.50;;;2.30;;
15667;SDS011;7934;48.710;9.024;2023-04-25T00:38:43;3.35;;;2.30;;
15667;SDS011;7934;48.710;9.024;2023-04-25T00:41:10;2.45;;;2.22;;
15667;SDS011;7934;48.710;9.024;2023-04-25T00:43:38;4.68;;;2.28;;
15667;SDS011;7934;48.710;9.024;2023-04-25T00:46:06;2.20;;;2.05;;
15667;SDS011;7934;48.710;9.024;2023-04-25T00:48:34;2.55;;;2.35;;
15667;SDS011;7934;48.710;9.024;2023-04-25T00:51:02;3.15;;;2.40;;
15667;SDS011;7934;48.710;9.024;2023-04-25T00:53:29;2.70;;;2.17;;
15667;SDS011;7934;48.710;9.024;2023-04-25T00:55:58;2.63;;;2.42;;
15667;SDS011;7934;48.710;9.024;2023-04-25T00:58:25;2.50;;;2.30;;
15667;SDS011;7934;48.710;9.024;2023-04-25T01:00:52;2.70;;;2.50;;
15667;SDS011;7934;48.710;9.024;2023-04-25T01:03:22;3.45;;;2.60;;
15667;SDS011;7934;48.710;9.024;2023-04-25T01:05:51;2.92;;;2.63;;
15667;SDS011;7934;48.710;9.024;2023-04-25T01:08:18;4.45;;;2.80;;
15667;SDS011;7934;48.710;9.024;2023-04-25T01:10:45;5.03;;;2.70;;
15667;SDS011;7934;48.710;9.024;2023-04-25T01:13:12;2.67;;;2.47;;
15667;SDS011;7934;48.710;9.024;2023-04-25T01:15:40;4.28;;;2.75;;
15667;SDS011;7934;48.710;9.024;2023-04-25T01:18:07;2.87;;;2.50;;
15667;SDS011;7934;48.710;9.024;2023-04-25T01:20:34;2.55;;;2.40;;
15667;SDS011;7934;48.710;9.024;2023-04-25T01:23:03;3.20;;;2.42;;
15667;SDS011;7934;48.710;9.024;2023-04-25T01:25:30;2.78;;;2.60;;
15667;SDS011;7934;48.710;9.024;2023-04-25T01:28:00;2.58;;;2.38;;
15667;SDS011;7934;48.710;9.024;2023-04-25T01:30:32;3.75;;;2.70;;
15667;SDS011;7934;48.710;9.024;2023-04-25T01:32:59;3.40;;;3.10;;
15667;SDS011;7934;48.710;9.024;2023-04-25T01:35:27;2.80;;;2.60;;
15667;SDS011;7934;48.710;9.024;2023-04-25T01:37:55;3.00;;;2.70;;
15667;SDS011;7934;48.710;9.024;2023-04-25T01:40:23;5.20;;;2.87;;
15667;SDS011;7934;48.710;9.024;2023-04-25T01:42:51;4.80;;;2.90;;
15667;SDS011;7934;48.710;9.024;2023-04-25T01:45:18;2.95;;;2.72;;
15667;SDS011;7934;48.710;9.024;2023-04-25T01:47:45;3.35;;;2.83;;
15667;SDS011;7934;48.710;9.024;2023-04-25T01:50:14;3.50;;;2.35;;
15667;SDS011;7934;48.710;9.024;2023-04-25T01:52:41;2.95;;;2.40;;
15667;SDS011;7934;48.710;9.024;2023-04-25T01:55:09;2.60;;;2.28;;
15667;SDS011;7934;48.710;9.024;2023-04-25T01:57:37;2.70;;;2.50;;
15667;SDS011;7934;48.710;9.024;2023-04-25T02:00:05;2.50;;;2.30;;
15667;SDS011;7934;48.710;9.024;2023-04-25T02:02:34;3.22;;;2.40;;
15667;SDS011;7934;48.710;9.024;2023-04-25T02:05:01;2.20;;;2.10;;
15667;SDS011;7934;48.710;9.024;2023-04-25T02:07:28;2.60;;;2.40;;
15667;SDS011;7934;48.710;9.024;2023-04-25T02:09:55;3.10;;;2.13;;
15667;SDS011;7934;48.710;9.024;2023-04-25T02:12:22;2.60;;;2.40;;
15667;SDS011;7934;48.710;9.024;2023-04-25T02:14:52;2.63;;;2.42;;
15667;SDS011;7934;48.710;9.024;2023-04-25T02:17:19;2.45;;;2.28;;
15667;SDS011;7934;48.710;9.024;2023-04-25T02:19:46;2.93;;;2.60;;
15667;SDS011;7934;48.710;9.024;2023-04-25T02:22:14;2.88;;;2.50;;
15667;SDS011;7934;48.710;9.024;2023-04-25T02:24:41;2.60;;;2.40;;
15667;SDS011;7934;48.710;9.024;2023-04-25T02:27:08;2.67;;;2.33;;
15667;SDS011;7934;48.710;9.024;2023-04-25T02:29:35;2.83;;;2.45;;
15667;SDS011;7934;48.710;9.024;2023-04-25T02:32:04;2.90;;;2.70;;
15667;SDS011;7934;48.710;9.024;2023-04-25T02:34:31;3.03;;;2.83;;
15667;SDS011;7934;48.710;9.024;2023-04-25T02:36:58;2.75;;;2.50;;
15667;SDS011;7934;48.710;9.024;2023-04-25T02:39:25;2.22;;;2.13;;
15667;SDS011;7934;48.710;9.024;2023-04-25T02:41:52;2.78;;;2.58;;
15667;SDS011;7934;48.710;9.024;2023-04-25T02:44:19;3.20;;;2.47;;
15667;SDS011;7934;48.710;9.024;2023-04-25T02:46:46;2.70;;;2.50;;
15667;SDS011;7934;48.710;9.024;2023-04-25T02:49:15;2.30;;;2.20;;
15667;SDS011;7934;48.710;9.024;2023-04-25T02:51:42;2.78;;;2.50;;
15667;SDS011;7934;48.710;9.024;2023-04-25T02:54:11;2.33;;;2.13;;
15667;SDS011;7934;48.710;9.024;2023-04-25T02:56:38;2.65;;;2.45;;
15667;SDS011;7934;48.710;9.024;2023-04-25T02:59:05;2.65;;;2.30;;
15667;SDS011;7934;48.710;9.024;2023-04-25T03:01:32;2.53;;;2.33;;
15667;SDS011;7934;48.710;9.024;2023-04-25T03:03:59;2.47;;;2.15;;
15667;SDS011;7934;48.710;9.024;2023-04-25T03:06:28;2.60;;;2.40;;
15667;SDS011;7934;48.710;9.024;2023-04-25T03:08:56;2.30;;;2.20;;
15667;SDS011;7934;48.710;9.024;2023-04-25T03:11:24;2.70;;;2.03;;
15667;SDS011;7934;48.710;9.024;2023-04-25T03:13:51;2.38;;;2.20;;
15667;SDS011;7934;48.710;9.024;2023-04-25T03:16:18;3.38;;;2.63;;
15667;SDS011;7934;48.710;9.024;2023-04-25T03:18:46;3.65;;;2.60;;
15667;SDS011;7934;48.710;9.024;2023-04-25T03:21:14;2.57;;;2.37;;
15667;SDS011;7934;48.710;9.024;2023-04-25T03:23:43;2.80;;;2.53;;
15667;SDS011;7934;48.710;9.024;2023-04-25T03:26:10;2.55;;;2.35;;
15667;SDS011;7934;48.710;9.024;2023-04-25T03:28:37;5.18;;;2.92;;
15667;SDS011;7934;48.710;9.024;2023-04-25T03:31:05;2.97;;;2.60;;
15667;SDS011;7934;48.710;9.024;2023-04-25T03:33:32;3.60;;;2.90;;
15667;SDS011;7934;48.710;9.024;2023-04-25T03:35:59;3.47;;;2.72;;
15667;SDS011;7934;48.710;9.024;2023-04-25T03:38:27;3.45;;;2.80;;
15667;SDS011;7934;48.710;9.024;2023-04-25T03:40:55;6.95;;;3.17;;
15667;SDS011;7934;48.710;9.024;2023-04-25T03:43:22;3.35;;;2.90;;
15667;SDS011;7934;48.710;9.024;2023-04-25T03:45:49;4.07;;;2.90;;
15667;SDS011;7934;48.710;9.024;2023-04-25T03:48:16;4.53;;;3.38;;
15667;SDS011;7934;48.710;9.024;2023-04-25T03:50:46;3.28;;;3.00;;
15667;SDS011;7934;48.710;9.024;2023-04-25T03:53:13;3.28;;;3.08;;
15667;SDS011;7934;48.710;9.024;2023-04-25T03:55:40;3.53;;;3.13;;
15667;SDS011;7934;48.710;9.024;2023-04-25T03:58:09;3.13;;;2.92;;
15667;SDS011;7934;48.710;9.024;2023-04-25T04:00:36;3.28;;;3.00;;
15667;SDS011;7934;48.710;9.024;2023-04-25T04:03:03;4.10;;;2.90;;
15667;SDS011;7934;48.710;9.024;2023-04-25T04:05:30;3.63;;;3.17;;
15667;SDS011;7934;48.710;9.024;2023-04-25T04:07:58;4.15;;;3.08;;
15667;SDS011;7934;48.710;9.024;2023-04-25T04:10:25;3.83;;;3.10;;
15667;SDS011;7934;48.710;9.024;2023-04-25T04:13:01;3.50;;;3.20;;
15667;SDS011;7934;48.710;9.024;2023-04-25T04:15:30;5.20;;;3.40;;
15667;SDS011;7934;48.710;9.024;2023-04-25T04:17:58;3.63;;;3.30;;
15667;SDS011;7934;48.710;9.024;2023-04-25T04:20:27;4.50;;;3.40;;
15667;SDS011;7934;48.710;9.024;2023-04-25T04:22:57;5.57;;;3.50;;
15667;SDS011;7934;48.710;9.024;2023-04-25T04:25:24;4.43;;;3.50;;
15667;SDS011;7934;48.710;9.024;2023-04-25T04:27:51;4.78;;;3.67;;
15667;SDS011;7934;48.710;9.024;2023-04-25T04:30:20;3.67;;;3.37;;
15667;SDS011;7934;48.710;9.024;2023-04-25T04:32:50;3.70;;;3.40;;
15667;SDS011;7934;48.710;9.024;2023-04-25T04:35:17;7.17;;;5.03;;
15667;SDS011;7934;48.710;9.024;2023-04-25T04:37:44;8.55;;;5.88;;
15667;SDS011;7934;48.710;9.024;2023-04-25T04:40:12;8.45;;;5.28;;
15667;SDS011;7934;48.710;9.024;2023-04-25T04:42:40;5.60;;;4.10;;
15667;SDS011;7934;48.710;9.024;2023-04-25T04:45:08;4.18;;;3.78;;
15667;SDS011;7934;48.710;9.024;2023-04-25T04:47:36;4.50;;;4.00;;
15667;SDS011;7934;48.710;9.024;2023-04-25T04:50:06;4.60;;;4.00;;
15667;SDS011;7934;48.710;9.024;2023-04-25T04:52:34;6.03;;;4.17;;
15667;SDS011;7934;48.710;9.024;2023-04-25T04:55:04;4.75;;;3.92;;
15667;SDS011;7934;48.710;9.024;2023-04-25T04:57:32;5.43;;;3.92;;
15667;SDS011;7934;48.710;9.024;2023-04-25T05:00:00;4.45;;;3.90;;
15667;SDS011;7934;48.710;9.024;2023-04-25T05:02:28;4.65;;;3.90;;
15667;SDS011;7934;48.710;9.024;2023-04-25T05:04:59;5.75;;;4.00;;
15667;SDS011;7934;48.710;9.024;2023-04-25T05:07:27;4.53;;;4.03;;
15667;SDS011;7934;48.710;9.024;2023-04-25T05:09:54;7.47;;;3.90;;
15667;SDS011;7934;48.710;9.024;2023-04-25T05:12:21;9.13;;;3.80;;
15667;SDS011;7934;48.710;9.024;2023-04-25T05:14:49;4.75;;;3.88;;
15667;SDS011;7934;48.710;9.024;2023-04-25T05:17:16;4.35;;;3.95;;
15667;SDS011;7934;48.710;9.024;2023-04-25T05:19:43;5.20;;;4.07;;
15667;SDS011;7934;48.710;9.024;2023-04-25T05:22:13;8.43;;;4.13;;
15667;SDS011;7934;48.710;9.024;2023-04-25T05:24:46;4.45;;;4.05;;
15667;SDS011;7934;48.710;9.024;2023-04-25T05:27:15;4.38;;;3.78;;
15667;SDS011;7934;48.710;9.024;2023-04-25T05:29:43;4.85;;;4.28;;
15667;SDS011;7934;48.710;9.024;2023-04-25T05:32:10;9.27;;;4.43;;
15667;SDS011;7934;48.710;9.024;2023-04-25T05:34:37;5.63;;;4.25;;
15667;SDS011;7934;48.710;9.024;2023-04-25T05:37:04;5.22;;;4.78;;
15667;SDS011;7934;48.710;9.024;2023-04-25T05:39:34;9.15;;;4.95;;
15667;SDS011;7934;48.710;9.024;2023-04-25T05:42:03;6.57;;;4.18;;
15667;SDS011;7934;48.710;9.024;2023-04-25T05:44:30;5.38;;;4.18;;
15667;SDS011;7934;48.710;9.024;2023-04-25T05:46:57;4.45;;;4.10;;
15667;SDS011;7934;48.710;9.024;2023-04-25T05:49:24;4.65;;;4.15;;
15667;SDS011;7934;48.710;9.024;2023-04-25T05:51:51;5.83;;;4.60;;
15667;SDS011;7934;48.710;9.024;2023-04-25T05:54:19;6.43;;;4.43;;
15667;SDS011;7934;48.710;9.024;2023-04-25T05:56:46;6.35;;;4.90;;
15667;SDS011;7934;48.710;9.024;2023-04-25T05:59:17;6.43;;;5.40;;
15667;SDS011;7934;48.710;9.024;2023-04-25T06:01:45;7.25;;;4.47;;
15667;SDS011;7934;48.710;9.024;2023-04-25T06:04:17;6.33;;;4.10;;
15667;SDS011;7934;48.710;9.024;2023-04-25T06:06:44;5.07;;;4.63;;
15667;SDS011;7934;48.710;9.024;2023-04-25T06:09:11;5.50;;;4.85;;
15667;SDS011;7934;48.710;9.024;2023-04-25T06:11:38;7.20;;;4.65;;
15667;SDS011;7934;48.710;9.024;2023-04-25T06:14:22;6.32;;;4.68;;
15667;SDS011;7934;48.710;9.024;2023-04-25T06:16:49;4.53;;;4.13;;
15667;SDS011;7934;48.710;9.024;2023-04-25T06:19:16;4.90;;;4.40;;
15667;SDS011;7934;48.710;9.024;2023-04-25T06:21:43;7.53;;;4.53;;
15667;SDS011;7934;48.710;9.024;2023-04-25T06:24:11;6.15;;;4.30;;
15667;SDS011;7934;48.710;9.024;2023-04-25T06:26:38;5.63;;;4.10;;
15667;SDS011;7934;48.710;9.024;2023-04-25T06:29:06;6.00;;;4.30;;
15667;SDS011;7934;48.710;9.024;2023-04-25T06:31:34;5.90;;;4.10;;
15667;SDS011;7934;48.710;9.024;2023-04-25T06:34:01;5.05;;;4.55;;
15667;SDS011;7934;48.710;9.024;2023-04-25T06:36:28;5.32;;;4.53;;
15667;SDS011;7934;48.710;9.024;2023-04-25T06:38:55;5.13;;;4.63;;
15667;SDS011;7934;48.710;9.024;2023-04-25T06:41:28;4.53;;;4.13;;
15667;SDS011;7934;48.710;9.024;2023-04-25T06:43:58;4.75;;;4.30;;
15667;SDS011;7934;48.710;9.024;2023-04-25T06:46:25;4.47;;;4.07;;
15667;SDS011;7934;48.710;9.024;2023-04-25T06:48:54;9.07;;;4.57;;
15667;SDS011;7934;48.710;9.024;2023-04-25T06:51:24;4.57;;;4.20;;
15667;SDS011;7934;48.710;9.024;2023-04-25T06:54:08;4.70;;;4.10;;
15667;SDS011;7934;48.710;9.024;2023-04-25T06:56:38;4.82;;;3.88;;
15667;SDS011;7934;48.710;9.024;2023-04-25T06:59:06;5.53;;;3.97;;
15667;SDS011;7934;48.710;9.024;2023-04-25T07:01:34;4.73;;;4.33;;
15667;SDS011;7934;48.710;9.024;2023-04-25T07:04:02;4.55;;;4.18;;
15667;SDS011;7934;48.710;9.024;2023-04-25T07:06:30;4.97;;;4.47;;
15667;SDS011;7934;48.710;9.024;2023-04-25T07:08:57;4.65;;;4.25;;
15667;SDS011;7934;48.710;9.024;2023-04-25T07:11:24;5.60;;;5.20;;
15667;SDS011;7934;48.710;9.024;2023-04-25T07:13:51;5.50;;;5.00;;
15667;SDS011;7934;48.710;9.024;2023-04-25T07:16:18;5.50;;;5.00;;
15667;SDS011;7934;48.710;9.024;2023-04-25T07:18:45;5.60;;;5.13;;
15667;SDS011;7934;48.710;9.024;2023-04-25T07:21:14;6.50;;;6.00;;
15667;SDS011;7934;48.710;9.024;2023-04-25T07:23:41;6.75;;;6.03;;
15667;SDS011;7934;48.710;9.024;2023-04-25T07:26:08;9.07;;;5.82;;
15667;SDS011;7934;48.710;9.024;2023-04-25T07:28:35;7.00;;;6.10;;
15667;SDS011;7934;48.710;9.024;2023-04-25T07:31:02;6.75;;;6.13;;
15667;SDS011;7934;48.710;9.024;2023-04-25T07:33:33;7.78;;;6.80;;
15667;SDS011;7934;48.710;9.024;2023-04-25T07:36:00;11.45;;;6.60;;
15667;SDS011;7934;48.710;9.024;2023-04-25T07:38:28;6.90;;;5.93;;
15667;SDS011;7934;48.710;9.024;2023-04-25T07:40:55;9.18;;;6.75;;
15667;SDS011;7934;48.710;9.024;2023-04-25T07:43:22;6.90;;;6.30;;
15667;SDS011;7934;48.710;9.024;2023-04-25T07:45:51;6.70;;;6.15;;
15667;SDS011;7934;48.710;9.024;2023-04-25T07:48:18;6.63;;;6.03;;
15667;SDS011;7934;48.710;9.024;2023-04-25T07:50:45;6.47;;;5.88;;
15667;SDS011;7934;48.710;9.024;2023-04-25T07:53:12;6.60;;;6.00;;
15667;SDS011;7934;48.710;9.024;2023-04-25T07:55:41;7.35;;;6.63;;
15667;SDS011;7934;48.710;9.024;2023-04-25T07:58:08;6.60;;;6.00;;
15667;SDS011;7934;48.710;9.024;2023-04-25T08:00:36;5.72;;;5.22;;
15667;SDS011;7934;48.710;9.024;2023-04-25T08:03:03;6.25;;;5.65;;
15667;SDS011;7934;48.710;9.024;2023-04-25T08:05:30;5.95;;;5.45;;
15667;SDS011;7934;48.710;9.024;2023-04-25T08:07:58;7.10;;;6.47;;
15667;SDS011;7934;48.710;9.024;2023-04-25T08:10:26;8.10;;;6.40;;
15667;SDS011;7934;48.710;9.024;2023-04-25T08:12:54;6.65;;;5.97;;
15667;SDS011;7934;48.710;9.024;2023-04-25T08:15:21;6.00;;;5.50;;
15667;SDS011;7934;48.710;9.024;2023-04-25T08:17:48;6.30;;;5.70;;
15667;SDS011;7934;48.710;9.024;2023-04-25T08:20:15;5.90;;;5.40;;
15667;SDS011;7934;48.710;9.024;2023-04-25T08:22:43;6.20;;;5.70;;
15667;SDS011;7934;48.710;9.024;2023-04-25T08:25:10;5.53;;;5.05;;
15667;SDS011;7934;48.710;9.024;2023-04-25T08:27:37;6.07;;;5.57;;
15667;SDS011;7934;48.710;9.024;2023-04-25T08:30:06;6.00;;;5.40;;
15667;SDS011;7934;48.710;9.024;2023-04-25T08:32:34;5.60;;;5.00;;
15667;SDS011;7934;48.710;9.024;2023-04-25T08:35:03;5.90;;;5.07;;
15667;SDS011;7934;48.710;9.024;2023-04-25T08:37:30;5.53;;;5.07;;
15667;SDS011;7934;48.710;9.024;2023-04-25T08:39:57;6.95;;;5.20;;
15667;SDS011;7934;48.710;9.024;2023-04-25T08:42:24;5.65;;;5.20;;
15667;SDS011;7934;48.710;9.024;2023-04-25T08:44:53;6.30;;;5.70;;
15667;SDS011;7934;48.710;9.024;2023-04-25T08:47:22;5.38;;;4.97;;
15667;SDS011;7934;48.710;9.024;2023-04-25T08:49:49;6.20;;;5.60;;
15667;SDS011;7934;48.710;9.024;2023-04-25T08:52:20;5.75;;;5.25;;
15667;SDS011;7934;48.710;9.024;2023-04-25T08:54:48;5.93;;;5.43;;
15667;SDS011;7934;48.710;9.024;2023-04-25T08:57:16;7.35;;;6.65;;
15667;SDS011;7934;48.710;9.024;2023-04-25T08:59:44;6.82;;;5.88;;
15667;SDS011;7934;48.710;9.024;2023-04-25T09:02:12;7.23;;;6.47;;
15667;SDS011;7934;48.710;9.024;2023-04-25T09:04:43;7.70;;;6.35;;
15667;SDS011;7934;48.710;9.024;2023-04-25T09:07:10;6.22;;;5.75;;
15667;SDS011;7934;48.710;9.024;2023-04-25T09:09:40;6.40;;;5.82;;
15667;SDS011;7934;48.710;9.024;2023-04-25T09:12:07;9.63;;;6.85;;
15667;SDS011;7934;48.710;9.024;2023-04-25T09:14:35;8.10;;;7.10;;
15667;SDS011;7934;48.710;9.024;2023-04-25T09:17:03;7.90;;;7.07;;
15667;SDS011;7934;48.710;9.024;2023-04-25T09:19:33;7.15;;;6.35;;
15667;SDS011;7934;48.710;9.024;2023-04-25T09:22:03;6.50;;;5.85;;
15667;SDS011;7934;48.710;9.024;2023-04-25T09:24:31;6.05;;;5.53;;
15667;SDS011;7934;48.710;9.024;2023-04-25T09:26:58;5.97;;;5.43;;
15667;SDS011;7934;48.710;9.024;2023-04-25T09:29:29;6.30;;;5.68;;
15667;SDS011;7934;48.710;9.024;2023-04-25T09:32:13;8.35;;;6.30;;
15667;SDS011;7934;48.710;9.024;2023-04-25T09:34:41;6.30;;;4.70;;
15667;SDS011;7934;48.710;9.024;2023-04-25T09:37:10;5.13;;;4.72;;
15667;SDS011;7934;48.710;9.024;2023-04-25T09:39:37;8.63;;;4.22;;
15667;SDS011;7934;48.710;9.024;2023-04-25T09:42:05;4.93;;;4.10;;
15667;SDS011;7934;48.710;9.024;2023-04-25T09:44:32;5.47;;;4.60;;
15667;SDS011;7934;48.710;9.024;2023-04-25T09:46:59;3.20;;;3.00;;
15667;SDS011;7934;48.710;9.024;2023-04-25T09:49:28;3.13;;;2.83;;
15667;SDS011;7934;48.710;9.024;2023-04-25T09:51:55;2.90;;;2.70;;
15667;SDS011;7934;48.710;9.024;2023-04-25T09:54:24;2.38;;;2.28;;
15667;SDS011;7934;48.710;9.024;2023-04-25T09:56:51;2.70;;;2.33;;
15667;SDS011;7934;48.710;9.024;2023-04-25T09:59:19;0.00;;;0.00;;
15667;SDS011;7934;48.710;9.024;2023-04-25T10:01:49;2.80;;;0.40;;
15667;SDS011;7934;48.710;9.024;2023-04-25T10:04:18;0.00;;;0.00;;
15667;SDS011;7934;48.710;9.024;2023-04-25T10:06:48;0.70;;;0.45;;
15667;SDS011;7934;48.710;9.024;2023-04-25T10:09:17;0.03;;;0.03;;
15667;SDS011;7934;48.710;9.024;2023-04-25T10:11:47;0.22;;;0.22;;
15667;SDS011;7934;48.710;9.024;2023-04-25T10:14:15;0.00;;;0.00;;
15667;SDS011;7934;48.710;9.024;2023-04-25T10:16:42;0.00;;;0.00;;
15667;SDS011;7934;48.710;9.024;2023-04-25T10:19:25;0.00;;;0.00;;
15667;SDS011;7934;48.710;9.024;2023-04-25T10:21:54;0.10;;;0.10;;
15667;SDS011;7934;48.710;9.024;2023-04-25T10:24:22;0.00;;;0.00;;
15667;SDS011;7934;48.710;9.024;2023-04-25T10:26:51;0.00;;;0.00;;
15667;SDS011;7934;48.710;9.024;2023-04-25T10:29:21;0.00;;;0.00;;
15667;SDS011;7934;48.710;9.024;2023-04-25T10:31:49;0.00;;;0.00;;
15667;SDS011;7934;48.710;9.024;2023-04-25T10:34:17;0.00;;;0.00;;
15667;SDS011;7934;48.710;9.024;2023-04-25T10:36:48;0.25;;;0.25;;
15667;SDS011;7934;48.710;9.024;2023-04-25T10:39:21;0.00;;;0.00;;
15667;SDS011;7934;48.710;9.024;2023-04-25T10:41:53;0.05;;;0.05;;
15667;SDS011;7934;48.710;9.024;2023-04-25T10:44:22;0.00;;;0.00;;
15667;SDS011;7934;48.710;9.024;2023-04-25T10:46:49;0.00;;;0.00;;
15667;SDS011;7934;48.710;9.024;2023-04-25T10:52:11;0.30;;;0.20;;
15667;SDS011;7934;48.710;9.024;2023-04-25T10:54:42;0.00;;;0.00;;
15667;SDS011;7934;48.710;9.024;2023-04-25T10:59:52;0.30;;;0.10;;
15667;SDS011;7934;48.710;9.024;2023-04-25T11:02:20;0.00;;;0.00;;
15667;SDS011;7934;48.710;9.024;2023-04-25T11:04:47;0.00;;;0.00;;
15667;SDS011;7934;48.710;9.024;2023-04-25T11:07:19;0.10;;;0.10;;
15667;SDS011;7934;48.710;9.024;2023-04-25T11:09:50;0.00;;;0.00;;
15667;SDS011;7934;48.710;9.024;2023-04-25T11:12:17;0.10;;;0.10;;
15667;SDS011;7934;48.710;9.024;2023-04-25T11:14:44;0.00;;;0.00;;
15667;SDS011;7934;48.710;9.024;2023-04-25T11:17:13;0.00;;;0.00;;
15667;SDS011;7934;48.710;9.024;2023-04-25T11:19:40;0.00;;;0.00;;
15667;SDS011;7934;48.710;9.024;2023-04-25T11:22:07;0.00;;;0.00;;
15667;SDS011;7934;48.710;9.024;2023-04-25T11:24:36;0.10;;;0.10;;
15667;SDS011;7934;48.710;9.024;2023-04-25T11:27:04;0.20;;;0.20;;
15667;SDS011;7934;48.710;9.024;2023-04-25T11:29:32;0.30;;;0.30;;
15667;SDS011;7934;48.710;9.024;2023-04-25T11:31:59;0.10;;;0.10;;
15667;SDS011;7934;48.710;9.024;2023-04-25T11:34:28;0.10;;;0.10;;
15667;SDS011;7934;48.710;9.024;2023-04-25T11:36:56;0.32;;;0.25;;
15667;SDS011;7934;48.710;9.024;2023-04-25T11:39:23;0.60;;;0.60;;
15667;SDS011;7934;48.710;9.024;2023-04-25T11:41:51;0.10;;;0.10;;
15667;SDS011;7934;48.710;9.024;2023-04-25T11:44:18;0.10;;;0.10;;
15667;SDS011;7934;48.710;9.024;2023-04-25T11:46:45;0.25;;;0.22;;
15667;SDS011;7934;48.710;9.024;2023-04-25T11:49:13;0.50;;;0.50;;
15667;SDS011;7934;48.710;9.024;2023-04-25T11:51:42;0.28;;;0.28;;
15667;SDS011;7934;48.710;9.024;2023-04-25T11:54:09;0.75;;;0.55;;
15667;SDS011;7934;48.710;9.024;2023-04-25T11:56:37;0.10;;;0.10;;
15667;SDS011;7934;48.710;9.024;2023-04-25T11:59:04;0.28;;;0.28;;
15667;SDS011;7934;48.710;9.024;2023-04-25T12:01:32;0.10;;;0.10;;
15667;SDS011;7934;48.710;9.024;2023-04-25T12:04:10;0.10;;;0.10;;
15667;SDS011;7934;48.710;9.024;2023-04-25T12:06:43;0.30;;;0.30;;
15667;SDS011;7934;48.710;9.024;2023-04-25T12:09:11;0.10;;;0.10;;
15667;SDS011;7934;48.710;9.024;2023-04-25T12:11:42;0.10;;;0.10;;
15667;SDS011;7934;48.710;9.024;2023-04-25T12:14:10;0.20;;;0.20;;
15667;SDS011;7934;48.710;9.024;2023-04-25T12:16:41;0.10;;;0.10;;
15667;SDS011;7934;48.710;9.024;2023-04-25T12:19:08;0.70;;;0.50;;
15667;SDS011;7934;48.710;9.024;2023-04-25T12:21:36;0.10;;;0.10;;
15667;SDS011;7934;48.710;9.024;2023-04-25T12:24:11;0.20;;;0.20;;
15667;SDS011;7934;48.710;9.024;2023-04-25T12:26:49;0.40;;;0.40;;
15667;SDS011;7934;48.710;9.024;2023-04-25T12:29:17;0.30;;;0.30;;
15667;SDS011;7934;48.710;9.024;2023-04-25T12:31:44;0.30;;;0.30;;
15667;SDS011;7934;48.710;9.024;2023-04-25T12:34:11;0.40;;;0.40;;
15667;SDS011;7934;48.710;9.024;2023-04-25T12:36:38;1.60;;;0.70;;
15667;SDS011;7934;48.710;9.024;2023-04-25T12:39:06;0.20;;;0.20;;
15667;SDS011;7934;48.710;9.024;2023-04-25T12:41:34;1.40;;;0.88;;
15667;SDS011;7934;48.710;9.024;2023-04-25T12:44:02;0.22;;;0.22;;
15667;SDS011;7934;48.710;9.024;2023-04-25T12:46:29;0.20;;;0.20;;
15667;SDS011;7934;48.710;9.024;2023-04-25T12:48:57;0.73;;;0.73;;
15667;SDS011;7934;48.710;9.024;2023-04-25T12:51:24;0.57;;;0.57;;
15667;SDS011;7934;48.710;9.024;2023-04-25T12:53:52;0.13;;;0.13;;
15667;SDS011;7934;48.710;9.024;2023-04-25T12:56:20;0.55;;;0.45;;
15667;SDS011;7934;48.710;9.024;2023-04-25T12:58:48;0.40;;;0.40;;
15667;SDS011;7934;48.710;9.024;2023-04-25T13:01:15;0.73;;;0.73;;
15667;SDS011;7934;48.710;9.024;2023-04-25T13:03:42;0.10;;;0.10;;
15667;SDS011;7934;48.710;9.024;2023-04-25T13:06:10;0.30;;;0.30;;
15667;SDS011;7934;48.710;9.024;2023-04-25T13:08:37;0.20;;;0.20;;
15667;SDS011;7934;48.710;9.024;2023-04-25T13:11:06;0.60;;;0.60;;
15667;SDS011;7934;48.710;9.024;2023-04-25T13:13:33;0.30;;;0.30;;
15667;SDS011;7934;48.710;9.024;2023-04-25T13:16:01;0.30;;;0.30;;
15667;SDS011;7934;48.710;9.024;2023-04-25T13:18:29;0.30;;;0.30;;
15667;SDS011;7934;48.710;9.024;2023-04-25T13:20:57;0.80;;;0.75;;
15667;SDS011;7934;48.710;9.024;2023-04-25T13:23:26;0.50;;;0.50;;
15667;SDS011;7934;48.710;9.024;2023-04-25T13:25:53;0.20;;;0.20;;
15667;SDS011;7934;48.710;9.024;2023-04-25T13:28:22;0.32;;;0.32;;
15667;SDS011;7934;48.710;9.024;2023-04-25T13:30:50;1.65;;;0.45;;
15667;SDS011;7934;48.710;9.024;2023-04-25T13:33:18;0.60;;;0.60;;
15667;SDS011;7934;48.710;9.024;2023-04-25T13:35:45;8.40;;;1.75;;
15667;SDS011;7934;48.710;9.024;2023-04-25T13:38:18;0.63;;;0.63;;
15667;SDS011;7934;48.710;9.024;2023-04-25T13:40:45;0.40;;;0.40;;
15667;SDS011;7934;48.710;9.024;2023-04-25T13:43:12;0.75;;;0.75;;
15667;SDS011;7934;48.710;9.024;2023-04-25T13:45:39;0.75;;;0.75;;
15667;SDS011;7934;48.710;9.024;2023-04-25T13:48:07;0.60;;;0.60;;
15667;SDS011;7934;48.710;9.024;2023-04-25T13:50:35;1.10;;;1.00;;
15667;SDS011;7934;48.710;9.024;2023-04-25T13:53:02;0.60;;;0.60;;
15667;SDS011;7934;48.710;9.024;2023-04-25T13:55:29;0.55;;;0.55;;
15667;SDS011;7934;48.710;9.024;2023-04-25T13:57:57;1.00;;;1.00;;
15667;SDS011;7934;48.710;9.024;2023-04-25T14:00:24;0.40;;;0.40;;
15667;SDS011;7934;48.710;9.024;2023-04-25T14:02:51;0.50;;;0.50;;
15667;SDS011;7934;48.710;9.024;2023-04-25T14:05:18;0.87;;;0.87;;
15667;SDS011;7934;48.710;9.024;2023-04-25T14:07:47;0.32;;;0.32;;
15667;SDS011;7934;48.710;9.024;2023-04-25T14:10:14;0.52;;;0.52;;
15667;SDS011;7934;48.710;9.024;2023-04-25T14:12:41;0.88;;;0.88;;
15667;SDS011;7934;48.710;9.024;2023-04-25T14:15:08;0.47;;;0.47;;
15667;SDS011;7934;48.710;9.024;2023-04-25T14:17:36;0.30;;;0.30;;
15667;SDS011;7934;48.710;9.024;2023-04-25T14:20:04;0.88;;;0.88;;
15667;SDS011;7934;48.710;9.024;2023-04-25T14:22:32;0.93;;;0.85;;
15667;SDS011;7934;48.710;9.024;2023-04-25T14:25:03;0.60;;;0.60;;
15667;SDS011;7934;48.710;9.024;2023-04-25T14:27:30;0.50;;;0.50;;
15667;SDS011;7934;48.710;9.024;2023-04-25T14:29:57;0.22;;;0.22;;
15667;SDS011;7934;48.710;9.024;2023-04-25T14:32:25;1.20;;;0.70;;
15667;SDS011;7934;48.710;9.024;2023-04-25T14:34:52;0.63;;;0.63;;
15667;SDS011;7934;48.710;9.024;2023-04-25T14:37:19;0.20;;;0.20;;
15667;SDS011;7934;48.710;9.024;2023-04-25T14:39:46;0.30;;;0.30;;
15667;SDS011;7934;48.710;9.024;2023-04-25T14:42:15;0.70;;;0.70;;
15667;SDS011;7934;48.710;9.024;2023-04-25T14:44:42;1.80;;;0.70;;
15667;SDS011;7934;48.710;9.024;2023-04-25T14:47:10;4.93;;;4.53;;
15667;SDS011;7934;48.710;9.024;2023-04-25T14:49:37;4.72;;;4.40;;
15667;SDS011;7934;48.710;9.024;2023-04-25T14:52:04;4.82;;;4.35;;
15667;SDS011;7934;48.710;9.024;2023-04-25T14:54:31;4.45;;;4.05;;
15667;SDS011;7934;48.710;9.024;2023-04-25T14:56:58;4.47;;;4.10;;
15667;SDS011;7934;48.710;9.024;2023-04-25T14:59:27;4.00;;;3.70;;
15667;SDS011;7934;48.710;9.024;2023-04-25T15:01:54;4.00;;;3.80;;
15667;SDS011;7934;48.710;9.024;2023-04-25T15:04:21;4.03;;;3.78;;
15667;SDS011;7934;48.710;9.024;2023-04-25T15:06:49;4.28;;;3.95;;
15667;SDS011;7934;48.710;9.024;2023-04-25T15:09:16;4.35;;;4.05;;
15667;SDS011;7934;48.710;9.024;2023-04-25T15:11:43;4.40;;;3.90;;